Time;durP1;ratioP1;P1;durP2;ratioP2;P2;SDS_P1;SDS_P2;PMS_P1;PMS_P2;Temp;Humidity;BMP_temperature;BMP_pressure;BME280_temperature;BME280_humidity;BME280_pressure;Samples;Min_cycle;Max_cycle;Signal;HPM_P1;HPM_P2
2022/08/02 00:01:09;;;;;;;2.00;1.52;;;;;;;;;;5053801;28;20228;-85
2022/08/02 00:03:38;;;;;;;1.70;1.60;;;;;;;;;;5054056;28;20220;-86
2022/08/02 00:06:05;;;;;;;1.65;1.40;;;;;;;;;;5053773;28;20226;-85
2022/08/02 00:08:33;;;;;;;2.00;1.90;;;;;;;;;;5053705;28;20673;-85
2022/08/02 00:11:00;;;;;;;1.65;1.55;;;;;;;;;;5053775;28;20241;-85
2022/08/02 00:13:28;;;;;;;1.50;1.40;;;;;;;;;;5053694;28;20284;-85
2022/08/02 00:15:55;;;;;;;2.17;1.60;;;;;;;;;;5053786;28;20641;-85
2022/08/02 00:18:23;;;;;;;1.60;1.50;;;;;;;;;;5053675;28;20292;-85
2022/08/02 00:20:52;;;;;;;2.15;2.00;;;;;;;;;;5053963;28;20295;-85
2022/08/02 00:23:20;;;;;;;1.77;1.67;;;;;;;;;;5053769;28;20292;-85
2022/08/02 00:25:47;;;;;;;1.55;1.35;;;;;;;;;;5053627;28;20269;-85
2022/08/02 00:28:15;;;;;;;1.75;1.48;;;;;;;;;;5053305;28;20304;-85
2022/08/02 00:30:42;;;;;;;1.50;1.40;;;;;;;;;;5053834;28;20737;-84
2022/08/02 00:33:10;;;;;;;4.90;1.55;;;;;;;;;;5053951;28;20656;-85
2022/08/02 00:35:37;;;;;;;2.00;1.67;;;;;;;;;;5053485;28;20202;-85
2022/08/02 00:38:06;;;;;;;1.83;1.60;;;;;;;;;;5053960;28;20208;-85
2022/08/02 00:40:34;;;;;;;1.40;1.30;;;;;;;;;;5054295;28;20305;-85
2022/08/02 00:43:05;;;;;;;1.77;1.67;;;;;;;;;;5054289;28;20292;-84
2022/08/02 00:45:33;;;;;;;1.48;1.38;;;;;;;;;;5053667;28;20190;-85
2022/08/02 00:48:01;;;;;;;1.50;1.38;;;;;;;;;;5053005;28;20325;-85
2022/08/02 00:50:29;;;;;;;1.38;1.38;;;;;;;;;;5053604;28;20220;-86
2022/08/02 00:52:58;;;;;;;1.60;1.40;;;;;;;;;;5053980;28;20300;-86
2022/08/02 00:55:28;;;;;;;1.60;1.50;;;;;;;;;;5053817;28;20213;-85
2022/08/02 00:57:56;;;;;;;1.50;1.40;;;;;;;;;;5053340;28;20277;-85
2022/08/02 01:00:24;;;;;;;1.50;1.40;;;;;;;;;;5054091;28;20221;-85
2022/08/02 01:02:51;;;;;;;1.35;1.30;;;;;;;;;;5036898;28;20290;-85
2022/08/02 01:05:19;;;;;;;1.42;1.25;;;;;;;;;;5033577;28;20289;-85
2022/08/02 01:07:46;;;;;;;1.13;1.13;;;;;;;;;;5033555;28;20222;-85
2022/08/02 01:10:14;;;;;;;1.52;1.35;;;;;;;;;;5032886;28;20309;-85
2022/08/02 01:12:43;;;;;;;1.40;1.30;;;;;;;;;;5033658;28;20213;-85
2022/08/02 01:15:12;;;;;;;1.95;1.70;;;;;;;;;;5033371;28;20678;-85
2022/08/02 01:17:47;;;;;;;1.70;1.60;;;;;;;;;;5033042;28;20297;-85
2022/08/02 01:20:40;;;;;;;1.85;1.70;;;;;;;;;;5033393;28;20309;-85
2022/08/02 01:23:25;;;;;;;2.03;1.70;;;;;;;;;;5033658;28;20278;-86
2022/08/02 01:26:13;;;;;;;1.60;1.45;;;;;;;;;;5033488;28;20206;-85
2022/08/02 01:28:49;;;;;;;1.55;1.45;;;;;;;;;;5033047;28;20310;-85
2022/08/02 01:31:32;;;;;;;1.25;1.23;;;;;;;;;;5036728;28;20304;-85
2022/08/02 01:34:05;;;;;;;1.67;1.58;;;;;;;;;;5053077;28;20218;-85
2022/08/02 01:36:38;;;;;;;1.35;1.25;;;;;;;;;;5052910;28;20244;-85
2022/08/02 01:39:07;;;;;;;1.55;1.45;;;;;;;;;;5053013;28;20289;-85
2022/08/02 01:41:36;;;;;;;1.20;1.20;;;;;;;;;;5052898;28;20221;-85
2022/08/02 01:44:05;;;;;;;2.00;1.90;;;;;;;;;;5052736;28;20300;-86
2022/08/02 01:46:34;;;;;;;1.65;1.55;;;;;;;;;;5052465;28;20580;-86
2022/08/02 01:49:05;;;;;;;1.35;1.25;;;;;;;;;;5052813;28;20312;-86
2022/08/02 01:54:23;;;;;;;1.38;1.27;;;;;;;;;;5026802;28;20563;-85
2022/08/02 01:56:52;;;;;;;1.48;1.38;;;;;;;;;;5052502;28;20835;-86
2022/08/02 01:59:23;;;;;;;1.30;1.30;;;;;;;;;;5052802;28;20201;-86
2022/08/02 02:01:52;;;;;;;1.75;1.50;;;;;;;;;;5052712;28;20275;-85
2022/08/02 02:04:22;;;;;;;1.27;1.27;;;;;;;;;;5052545;28;20233;-86
2022/08/02 02:06:50;;;;;;;1.33;1.25;;;;;;;;;;5052405;28;20722;-85
2022/08/02 02:09:18;;;;;;;1.40;1.30;;;;;;;;;;5052526;28;20257;-85
2022/08/02 02:11:47;;;;;;;1.77;1.50;;;;;;;;;;5052234;28;20305;-85
2022/08/02 02:14:15;;;;;;;1.60;1.50;;;;;;;;;;5052625;28;20298;-85
2022/08/02 02:16:46;;;;;;;1.60;1.50;;;;;;;;;;5052119;28;20200;-86
2022/08/02 02:19:16;;;;;;;1.27;1.27;;;;;;;;;;5052218;28;20740;-86
2022/08/02 02:21:43;;;;;;;1.50;1.40;;;;;;;;;;5052506;28;20222;-86
2022/08/02 02:24:11;;;;;;;1.58;1.48;;;;;;;;;;5052501;28;20379;-86
2022/08/02 02:26:39;;;;;;;1.73;1.50;;;;;;;;;;5051861;28;20292;-85
2022/08/02 02:29:08;;;;;;;1.63;1.52;;;;;;;;;;5052171;28;20669;-85
2022/08/02 02:31:38;;;;;;;1.85;1.50;;;;;;;;;;5052188;28;20735;-86
2022/08/02 02:34:13;;;;;;;1.98;1.88;;;;;;;;;;5052322;28;20224;-86
2022/08/02 02:36:45;;;;;;;1.60;1.50;;;;;;;;;;5052336;28;20288;-86
2022/08/02 02:39:15;;;;;;;2.00;1.90;;;;;;;;;;5052319;28;20714;-86
2022/08/02 02:41:43;;;;;;;1.60;1.50;;;;;;;;;;5052283;28;20304;-85
2022/08/02 02:44:16;;;;;;;2.25;1.58;;;;;;;;;;5052298;28;20252;-86
2022/08/02 02:46:46;;;;;;;1.77;1.67;;;;;;;;;;5076367;22;20626;-80
2022/08/02 02:49:16;;;;;;;1.55;1.45;;;;;;;;;;5070508;28;20247;-80
2022/08/02 02:51:45;;;;;;;1.90;1.80;;;;;;;;;;5071993;28;20288;-79
2022/08/02 02:54:13;;;;;;;1.60;1.50;;;;;;;;;;5071727;28;20239;-79
2022/08/02 02:56:42;;;;;;;1.65;1.60;;;;;;;;;;5071479;28;20287;-79
2022/08/02 02:59:10;;;;;;;2.30;2.10;;;;;;;;;;5072096;28;20292;-79
2022/08/02 03:01:38;;;;;;;1.60;1.50;;;;;;;;;;5064847;28;20652;-79
2022/08/02 03:04:06;;;;;;;1.83;1.58;;;;;;;;;;5051749;28;20230;-79
2022/08/02 03:06:37;;;;;;;1.77;1.67;;;;;;;;;;5051369;28;20505;-79
2022/08/02 03:09:05;;;;;;;1.45;1.35;;;;;;;;;;5051414;28;20218;-79
2022/08/02 03:11:33;;;;;;;1.73;1.63;;;;;;;;;;5051649;28;20288;-79
2022/08/02 03:14:02;;;;;;;2.72;1.63;;;;;;;;;;5051355;28;20654;-79
2022/08/02 03:16:30;;;;;;;1.70;1.60;;;;;;;;;;5051817;28;20296;-79
2022/08/02 03:19:00;;;;;;;1.90;1.60;;;;;;;;;;5052899;28;20221;-80
2022/08/02 03:21:28;;;;;;;1.50;1.40;;;;;;;;;;5052376;28;20682;-79
2022/08/02 03:23:57;;;;;;;1.50;1.40;;;;;;;;;;5051805;28;20209;-80
2022/08/02 03:26:24;;;;;;;1.67;1.58;;;;;;;;;;5051221;28;20206;-80
2022/08/02 03:28:52;;;;;;;1.75;1.65;;;;;;;;;;5052921;28;20689;-79
2022/08/02 03:31:19;;;;;;;1.55;1.45;;;;;;;;;;5054821;28;20201;-79
2022/08/02 03:33:47;;;;;;;1.75;1.60;;;;;;;;;;5059018;28;20651;-80
2022/08/02 03:36:19;;;;;;;1.77;1.67;;;;;;;;;;5058281;28;20284;-80
2022/08/02 03:38:47;;;;;;;1.55;1.45;;;;;;;;;;5058057;28;20217;-80
2022/08/02 03:41:18;;;;;;;2.83;1.50;;;;;;;;;;5059078;28;20288;-81
2022/08/02 03:43:46;;;;;;;1.60;1.50;;;;;;;;;;5058404;28;20201;-81
2022/08/02 03:46:15;;;;;;;1.90;1.63;;;;;;;;;;5056941;28;20684;-80
2022/08/02 03:48:43;;;;;;;2.45;2.25;;;;;;;;;;5056461;28;20705;-80
2022/08/02 03:51:11;;;;;;;1.95;1.85;;;;;;;;;;5057276;28;20225;-80
2022/08/02 03:53:39;;;;;;;1.85;1.75;;;;;;;;;;5056142;28;20237;-80
2022/08/02 03:56:07;;;;;;;1.60;1.55;;;;;;;;;;5057111;28;20696;-81
2022/08/02 03:58:36;;;;;;;1.83;1.73;;;;;;;;;;5056486;28;20260;-81
2022/08/02 04:01:04;;;;;;;1.70;1.60;;;;;;;;;;5059764;28;20236;-81
2022/08/02 04:03:31;;;;;;;1.52;1.42;;;;;;;;;;5057563;28;20233;-80
2022/08/02 04:05:59;;;;;;;1.95;1.38;;;;;;;;;;5055813;28;20284;-80
2022/08/02 04:08:26;;;;;;;1.60;1.50;;;;;;;;;;5056365;28;20648;-81
2022/08/02 04:13:54;;;;;;;1.77;1.67;;;;;;;;;;4993638;28;20191;-80
2022/08/02 04:16:24;;;;;;;1.55;1.45;;;;;;;;;;4993327;28;20291;-80
2022/08/02 04:18:55;;;;;;;1.30;1.20;;;;;;;;;;5021658;28;20753;-80
2022/08/02 04:21:25;;;;;;;1.30;1.30;;;;;;;;;;5056508;28;20300;-81
2022/08/02 04:23:54;;;;;;;2.22;1.35;;;;;;;;;;5055428;28;20293;-80
2022/08/02 04:26:22;;;;;;;1.30;1.20;;;;;;;;;;5054943;28;20224;-80
2022/08/02 04:28:49;;;;;;;2.63;1.40;;;;;;;;;;5054923;28;20691;-80
2022/08/02 04:31:19;;;;;;;1.60;1.50;;;;;;;;;;5055303;28;20229;-81
2022/08/02 04:33:47;;;;;;;1.60;1.50;;;;;;;;;;5055156;28;20205;-81
2022/08/02 04:36:15;;;;;;;1.92;1.83;;;;;;;;;;5054795;28;20614;-80
2022/08/02 04:38:43;;;;;;;2.00;1.90;;;;;;;;;;5055009;28;20286;-81
2022/08/02 04:41:10;;;;;;;2.00;1.90;;;;;;;;;;5055116;28;20288;-80
2022/08/02 04:43:38;;;;;;;1.67;1.58;;;;;;;;;;5054282;28;20233;-80
2022/08/02 04:46:05;;;;;;;1.98;1.88;;;;;;;;;;5054712;28;20288;-80
2022/08/02 04:48:34;;;;;;;1.58;1.48;;;;;;;;;;5054774;28;20248;-80
2022/08/02 04:51:02;;;;;;;1.30;1.30;;;;;;;;;;5054248;28;20659;-79
2022/08/02 04:53:29;;;;;;;1.60;1.50;;;;;;;;;;5054201;28;20237;-80
2022/08/02 04:55:57;;;;;;;1.70;1.60;;;;;;;;;;5054161;28;20202;-80
2022/08/02 04:58:24;;;;;;;1.40;1.40;;;;;;;;;;5054402;28;20232;-81
2022/08/02 05:00:52;;;;;;;1.83;1.73;;;;;;;;;;5054091;28;20197;-81
2022/08/02 05:03:19;;;;;;;2.40;2.30;;;;;;;;;;5054042;28;20630;-82
2022/08/02 05:05:48;;;;;;;2.38;2.17;;;;;;;;;;5053574;28;20233;-81
2022/08/02 05:08:16;;;;;;;2.22;2.13;;;;;;;;;;5053377;28;20780;-80
2022/08/02 05:10:43;;;;;;;2.00;1.90;;;;;;;;;;5053831;28;20312;-79
2022/08/02 05:13:11;;;;;;;2.20;2.10;;;;;;;;;;5055487;28;20236;-80
2022/08/02 05:15:39;;;;;;;2.17;2.05;;;;;;;;;;5054657;28;20712;-78
2022/08/02 05:18:06;;;;;;;2.42;2.22;;;;;;;;;;5054592;28;20222;-80
2022/08/02 05:20:34;;;;;;;2.15;2.00;;;;;;;;;;5055066;28;20629;-80
2022/08/02 05:23:03;;;;;;;1.75;1.65;;;;;;;;;;5054703;28;20240;-79
2022/08/02 05:25:30;;;;;;;1.80;1.70;;;;;;;;;;5054939;28;20242;-78
2022/08/02 05:27:58;;;;;;;1.60;1.50;;;;;;;;;;5055248;28;20311;-80
2022/08/02 05:30:26;;;;;;;1.70;1.60;;;;;;;;;;5054595;28;20236;-79
2022/08/02 05:32:53;;;;;;;1.40;1.30;;;;;;;;;;5054668;28;20291;-78
2022/08/02 05:35:23;;;;;;;1.70;1.60;;;;;;;;;;5053837;28;20674;-79
2022/08/02 05:37:51;;;;;;;1.10;1.10;;;;;;;;;;5057360;28;20213;-80
2022/08/02 05:40:21;;;;;;;1.65;1.55;;;;;;;;;;5068151;28;20197;-79
2022/08/02 05:42:48;;;;;;;1.27;1.27;;;;;;;;;;5072016;28;20227;-79
2022/08/02 05:45:16;;;;;;;1.92;1.83;;;;;;;;;;5071862;28;20645;-79
2022/08/02 05:47:44;;;;;;;1.63;1.52;;;;;;;;;;5072845;28;20232;-80
2022/08/02 05:50:12;;;;;;;1.70;1.60;;;;;;;;;;5074589;28;20697;-82
2022/08/02 05:52:48;;;;;;;1.67;1.58;;;;;;;;;;5074951;28;20239;-81
2022/08/02 05:55:22;;;;;;;2.20;2.10;;;;;;;;;;5073704;28;20222;-80
2022/08/02 05:57:55;;;;;;;1.73;1.63;;;;;;;;;;5054551;28;20249;-80
2022/08/02 06:00:23;;;;;;;2.03;1.92;;;;;;;;;;5054457;28;20285;-80
2022/08/02 06:03:04;;;;;;;1.70;1.60;;;;;;;;;;5063961;28;20225;-80
2022/08/02 06:05:35;;;;;;;2.58;2.38;;;;;;;;;;5053667;28;20216;-79
2022/08/02 06:08:07;;;;;;;1.73;1.63;;;;;;;;;;5053208;28;20225;-79
2022/08/02 06:10:37;;;;;;;2.05;1.95;;;;;;;;;;5057596;28;20218;-80
2022/08/02 06:13:10;;;;;;;2.00;1.90;;;;;;;;;;5054010;28;20198;-79
2022/08/02 06:15:38;;;;;;;2.22;2.13;;;;;;;;;;5053764;28;20205;-79
2022/08/02 06:18:08;;;;;;;2.67;2.47;;;;;;;;;;5053500;28;20253;-81
2022/08/02 06:20:36;;;;;;;1.88;1.77;;;;;;;;;;5053657;28;20229;-79
2022/08/02 06:23:05;;;;;;;2.10;1.98;;;;;;;;;;5056226;28;20693;-80
2022/08/02 06:25:38;;;;;;;2.03;1.92;;;;;;;;;;5072504;28;20209;-78
2022/08/02 06:28:07;;;;;;;2.70;2.50;;;;;;;;;;5071927;28;20620;-79
2022/08/02 06:30:35;;;;;;;3.95;2.78;;;;;;;;;;5071822;28;20217;-79
2022/08/02 06:33:02;;;;;;;2.20;2.10;;;;;;;;;;5071041;28;20205;-81
2022/08/02 06:35:37;;;;;;;3.80;3.40;;;;;;;;;;5069074;28;20202;-81
2022/08/02 06:38:05;;;;;;;3.85;3.55;;;;;;;;;;5058705;28;20294;-81
2022/08/02 06:40:35;;;;;;;4.20;3.90;;;;;;;;;;5058935;28;20644;-80
2022/08/02 06:43:13;;;;;;;3.42;3.13;;;;;;;;;;5059619;28;20269;-80
2022/08/02 06:45:41;;;;;;;3.53;2.90;;;;;;;;;;5060033;28;20232;-80
2022/08/02 06:48:09;;;;;;;4.30;3.33;;;;;;;;;;5060654;28;20249;-80
2022/08/02 06:50:38;;;;;;;3.58;3.28;;;;;;;;;;5056999;28;20680;-81
2022/08/02 06:53:06;;;;;;;4.35;3.95;;;;;;;;;;5057872;28;20209;-81
2022/08/02 06:55:34;;;;;;;4.28;3.97;;;;;;;;;;5058910;28;20644;-80
2022/08/02 06:58:02;;;;;;;3.97;3.67;;;;;;;;;;5058422;28;20293;-82
2022/08/02 07:00:31;;;;;;;3.42;3.20;;;;;;;;;;5062292;28;20221;-80
2022/08/02 07:02:59;;;;;;;3.03;2.83;;;;;;;;;;5063246;28;20241;-82
2022/08/02 07:05:26;;;;;;;7.13;4.72;;;;;;;;;;5060102;28;20256;-81
2022/08/02 07:07:54;;;;;;;3.90;3.60;;;;;;;;;;5063077;28;20272;-81
2022/08/02 07:10:22;;;;;;;4.50;4.10;;;;;;;;;;5064456;28;20225;-81
2022/08/02 07:12:49;;;;;;;3.40;3.20;;;;;;;;;;5062106;28;20251;-82
2022/08/02 07:15:17;;;;;;;4.40;4.00;;;;;;;;;;5063789;28;20233;-84
2022/08/02 07:17:46;;;;;;;3.75;3.53;;;;;;;;;;5064127;28;20260;-81
2022/08/02 07:20:13;;;;;;;3.78;3.50;;;;;;;;;;5062254;28;20711;-82
2022/08/02 07:22:42;;;;;;;4.53;4.22;;;;;;;;;;5061119;28;20208;-81
2022/08/02 07:25:11;;;;;;;4.43;4.03;;;;;;;;;;5060892;28;20639;-83
2022/08/02 07:27:38;;;;;;;3.70;3.40;;;;;;;;;;5059389;28;20725;-82
2022/08/02 07:30:08;;;;;;;3.13;2.92;;;;;;;;;;5059711;28;20275;-82
2022/08/02 07:32:35;;;;;;;4.35;4.05;;;;;;;;;;5057866;28;20312;-82
2022/08/02 07:35:06;;;;;;;3.95;3.65;;;;;;;;;;5059775;28;20244;-82
2022/08/02 07:37:35;;;;;;;4.85;4.47;;;;;;;;;;5057251;28;20661;-81
2022/08/02 07:40:03;;;;;;;5.38;4.90;;;;;;;;;;5056847;28;20237;-81
2022/08/02 07:42:31;;;;;;;6.72;5.45;;;;;;;;;;5056841;28;20277;-82
2022/08/02 07:44:58;;;;;;;4.22;3.92;;;;;;;;;;5057391;28;20247;-82
2022/08/02 07:47:26;;;;;;;4.30;3.95;;;;;;;;;;5057542;28;20252;-80
2022/08/02 07:49:53;;;;;;;5.20;4.80;;;;;;;;;;5060555;28;20241;-83
2022/08/02 07:52:22;;;;;;;3.83;3.53;;;;;;;;;;5060475;28;20710;-81
2022/08/02 07:54:50;;;;;;;6.50;4.70;;;;;;;;;;5057472;28;20233;-83
2022/08/02 07:57:18;;;;;;;4.47;4.18;;;;;;;;;;5055426;28;20743;-82
2022/08/02 07:59:46;;;;;;;3.97;3.67;;;;;;;;;;5057546;28;20203;-82
2022/08/02 08:02:14;;;;;;;3.08;2.88;;;;;;;;;;5058776;28;20729;-82
2022/08/02 08:04:42;;;;;;;3.50;3.00;;;;;;;;;;5061445;28;20296;-83
2022/08/02 08:07:10;;;;;;;4.43;2.70;;;;;;;;;;5059675;28;20736;-83
2022/08/02 08:09:40;;;;;;;3.20;3.00;;;;;;;;;;5057127;28;20279;-82
2022/08/02 08:12:08;;;;;;;3.50;3.17;;;;;;;;;;5055028;28;20236;-83
2022/08/02 08:14:36;;;;;;;2.90;2.70;;;;;;;;;;5055269;28;20205;-82
2022/08/02 08:17:04;;;;;;;2.72;2.53;;;;;;;;;;5054850;28;20285;-83
2022/08/02 08:19:32;;;;;;;2.15;2.05;;;;;;;;;;5056676;28;20229;-82
2022/08/02 08:22:00;;;;;;;2.28;2.08;;;;;;;;;;5055351;28;20236;-83
2022/08/02 08:24:28;;;;;;;1.83;1.73;;;;;;;;;;5055476;28;20205;-80
2022/08/02 08:26:57;;;;;;;2.80;1.83;;;;;;;;;;5055321;28;20737;-83
2022/08/02 08:29:26;;;;;;;2.25;1.75;;;;;;;;;;5055636;28;20305;-85
2022/08/02 08:31:53;;;;;;;1.95;1.85;;;;;;;;;;5055670;28;20231;-84
2022/08/02 08:34:22;;;;;;;2.10;1.85;;;;;;;;;;5056392;28;20229;-84
2022/08/02 08:36:50;;;;;;;1.88;1.77;;;;;;;;;;5056280;28;20206;-82
2022/08/02 08:39:17;;;;;;;1.50;1.40;;;;;;;;;;5056929;28;20225;-84
2022/08/02 08:41:45;;;;;;;1.95;1.77;;;;;;;;;;5055167;28;20633;-83
2022/08/02 08:44:14;;;;;;;1.23;1.23;;;;;;;;;;5057332;28;20556;-82
2022/08/02 08:46:43;;;;;;;1.48;1.38;;;;;;;;;;5055815;28;20677;-84
2022/08/02 08:49:21;;;;;;;1.20;1.10;;;;;;;;;;5082581;23;20674;-81
2022/08/02 08:51:51;;;;;;;1.25;1.15;;;;;;;;;;5071295;28;20231;-82
2022/08/02 08:54:19;;;;;;;0.90;0.90;;;;;;;;;;5070625;28;20635;-80
2022/08/02 08:56:47;;;;;;;1.25;1.25;;;;;;;;;;5054245;28;20288;-81
2022/08/02 08:59:16;;;;;;;1.48;1.38;;;;;;;;;;5054052;28;20312;-81
2022/08/02 09:01:45;;;;;;;1.73;1.40;;;;;;;;;;5055166;28;20237;-82
2022/08/02 09:04:13;;;;;;;1.40;1.38;;;;;;;;;;5064741;28;20235;-80
2022/08/02 09:06:41;;;;;;;1.55;1.45;;;;;;;;;;5073977;28;20288;-81
2022/08/02 09:09:09;;;;;;;1.30;1.30;;;;;;;;;;5073881;28;20724;-81
2022/08/02 09:11:36;;;;;;;2.00;1.90;;;;;;;;;;5074148;28;20680;-82
2022/08/02 09:14:05;;;;;;;1.20;1.20;;;;;;;;;;5074223;28;20201;-81
2022/08/02 09:16:38;;;;;;;1.15;1.15;;;;;;;;;;5073346;28;20201;-81
2022/08/02 09:19:20;;;;;;;1.45;1.35;;;;;;;;;;5074029;28;20804;-82
2022/08/02 09:21:48;;;;;;;1.48;1.35;;;;;;;;;;5074054;28;20654;-81
2022/08/02 09:24:18;;;;;;;3.13;1.52;;;;;;;;;;5074394;28;20201;-81
2022/08/02 09:26:46;;;;;;;1.50;1.40;;;;;;;;;;5074003;28;20205;-81
2022/08/02 09:29:14;;;;;;;1.55;1.45;;;;;;;;;;5073524;28;20262;-82
2022/08/02 09:31:44;;;;;;;1.30;1.30;;;;;;;;;;5072664;28;20758;-80
2022/08/02 09:34:12;;;;;;;1.35;1.30;;;;;;;;;;5073616;28;20201;-81
2022/08/02 09:36:42;;;;;;;1.60;1.50;;;;;;;;;;5073016;28;20197;-80
2022/08/02 09:39:11;;;;;;;0.93;0.93;;;;;;;;;;5073621;28;20542;-82
2022/08/02 09:41:41;;;;;;;1.10;1.10;;;;;;;;;;5073423;28;20288;-82
2022/08/02 09:44:11;;;;;;;0.93;0.93;;;;;;;;;;5072925;28;20691;-82
2022/08/02 09:46:41;;;;;;;0.93;0.93;;;;;;;;;;5073445;28;20193;-81
2022/08/02 09:49:12;;;;;;;1.17;1.17;;;;;;;;;;5073351;28;20713;-82
2022/08/02 09:51:52;;;;;;;1.02;1.02;;;;;;;;;;5082775;28;20680;-81
2022/08/02 09:54:24;;;;;;;0.90;0.90;;;;;;;;;;5084321;28;20203;-80
2022/08/02 09:56:55;;;;;;;1.35;1.13;;;;;;;;;;5082743;28;20260;-80
2022/08/02 09:59:24;;;;;;;1.00;1.00;;;;;;;;;;5085546;28;20299;-81
2022/08/02 10:01:53;;;;;;;1.25;1.15;;;;;;;;;;5076210;28;20206;-81
2022/08/02 10:04:24;;;;;;;1.13;1.10;;;;;;;;;;5063422;28;20204;-81
2022/08/02 10:06:52;;;;;;;1.10;1.10;;;;;;;;;;5055978;28;20251;-82
2022/08/02 10:09:21;;;;;;;1.10;1.10;;;;;;;;;;5068130;28;20582;-82
2022/08/02 10:11:48;;;;;;;1.65;1.23;;;;;;;;;;5074983;28;20818;-83
2022/08/02 10:14:17;;;;;;;1.23;1.20;;;;;;;;;;5076369;28;20263;-82
2022/08/02 10:16:44;;;;;;;1.00;1.00;;;;;;;;;;5074898;28;20251;-82
2022/08/02 10:19:12;;;;;;;0.90;0.90;;;;;;;;;;5074894;28;20704;-82
2022/08/02 10:21:46;;;;;;;1.00;1.00;;;;;;;;;;5074038;28;20240;-82
2022/08/02 10:24:16;;;;;;;1.30;1.30;;;;;;;;;;5074475;28;20586;-82
2022/08/02 10:26:46;;;;;;;1.60;1.50;;;;;;;;;;5074870;28;20247;-82
2022/08/02 10:29:17;;;;;;;0.98;0.98;;;;;;;;;;5074178;28;20304;-81
2022/08/02 10:31:51;;;;;;;0.98;0.98;;;;;;;;;;5074206;28;20645;-81
2022/08/02 10:34:20;;;;;;;1.17;1.10;;;;;;;;;;5074521;28;20266;-83
2022/08/02 10:36:50;;;;;;;1.15;1.10;;;;;;;;;;5073962;28;20560;-82
2022/08/02 10:39:17;;;;;;;1.02;1.02;;;;;;;;;;5073600;28;20655;-82
2022/08/02 10:41:48;;;;;;;1.20;1.20;;;;;;;;;;5074342;28;20233;-82
2022/08/02 10:44:25;;;;;;;1.88;1.30;;;;;;;;;;5078940;28;20605;-82
2022/08/02 10:47:09;;;;;;;1.30;1.27;;;;;;;;;;5078308;28;20210;-82
2022/08/02 10:49:49;;;;;;;1.15;1.15;;;;;;;;;;5078109;28;20235;-82
2022/08/02 10:52:19;;;;;;;1.70;1.60;;;;;;;;;;5077990;28;20197;-82
2022/08/02 10:54:54;;;;;;;1.20;1.20;;;;;;;;;;5078044;28;20278;-82
2022/08/02 10:57:24;;;;;;;0.98;0.98;;;;;;;;;;5077896;28;20238;-82
2022/08/02 10:59:55;;;;;;;1.27;1.10;;;;;;;;;;5079126;28;20220;-82
2022/08/02 11:02:41;;;;;;;1.38;1.27;;;;;;;;;;5065963;28;20243;-83
2022/08/02 11:05:15;;;;;;;1.17;1.13;;;;;;;;;;5058510;28;20669;-82
2022/08/02 11:07:47;;;;;;;1.27;1.27;;;;;;;;;;5057763;28;20684;-82
2022/08/02 11:10:34;;;;;;;1.05;1.05;;;;;;;;;;5059110;28;20201;-81
2022/08/02 11:13:09;;;;;;;1.35;1.15;;;;;;;;;;5057846;28;20575;-80
2022/08/02 11:16:00;;;;;;;1.30;1.20;;;;;;;;;;5057196;28;20259;-81
2022/08/02 11:19:07;;;;;;;1.45;1.05;;;;;;;;;;5055763;28;20233;-82
2022/08/02 11:21:36;;;;;;;1.00;1.00;;;;;;;;;;5026976;28;20233;-82
2022/08/02 11:24:28;;;;;;;1.00;1.00;;;;;;;;;;5058038;28;20326;-83
2022/08/02 11:26:57;;;;;;;1.17;1.17;;;;;;;;;;5058254;28;20197;-83
2022/08/02 11:29:34;;;;;;;1.15;1.10;;;;;;;;;;5057174;28;20275;-81
2022/08/02 11:32:02;;;;;;;1.40;1.40;;;;;;;;;;5067378;28;20243;-82
2022/08/02 11:34:30;;;;;;;1.27;1.17;;;;;;;;;;5077091;28;20244;-83
2022/08/02 11:36:58;;;;;;;1.15;1.10;;;;;;;;;;5076552;28;20205;-82
2022/08/02 11:39:28;;;;;;;1.30;1.30;;;;;;;;;;5077598;28;20232;-82
2022/08/02 11:41:57;;;;;;;1.30;1.30;;;;;;;;;;5076989;28;20251;-82
2022/08/02 11:44:25;;;;;;;1.23;1.23;;;;;;;;;;5077594;28;20276;-81
2022/08/02 11:46:59;;;;;;;1.42;1.27;;;;;;;;;;5077659;28;20232;-82
2022/08/02 11:49:26;;;;;;;1.35;1.30;;;;;;;;;;5077112;28;20593;-82
2022/08/02 11:52:03;;;;;;;3.03;2.90;;;;;;;;;;5077515;28;20246;-81
2022/08/02 11:54:35;;;;;;;2.00;1.90;;;;;;;;;;5078367;28;20747;-82
2022/08/02 11:57:14;;;;;;;1.38;1.27;;;;;;;;;;5077180;28;20254;-82
2022/08/02 11:59:43;;;;;;;1.50;1.40;;;;;;;;;;5076911;28;20696;-82
2022/08/02 12:02:11;;;;;;;0.98;0.98;;;;;;;;;;5065789;28;20216;-82
2022/08/02 12:04:40;;;;;;;1.17;1.17;;;;;;;;;;5056265;28;20208;-81
2022/08/02 12:07:08;;;;;;;1.23;1.23;;;;;;;;;;5056304;28;20206;-82
2022/08/02 12:09:37;;;;;;;1.77;1.67;;;;;;;;;;5070797;28;20601;-82
2022/08/02 12:12:06;;;;;;;1.65;1.55;;;;;;;;;;5076344;28;20244;-82
2022/08/02 12:14:34;;;;;;;1.42;1.42;;;;;;;;;;5076427;28;20315;-81
2022/08/02 12:19:48;;;;;;;1.20;1.20;;;;;;;;;;5076172;28;20603;-82
2022/08/02 12:22:18;;;;;;;1.15;1.15;;;;;;;;;;5075439;28;20620;-81
2022/08/02 12:24:50;;;;;;;1.05;1.05;;;;;;;;;;5076015;28;20680;-81
2022/08/02 12:27:36;;;;;;;1.50;1.40;;;;;;;;;;5075044;28;20240;-81
2022/08/02 12:30:09;;;;;;;1.30;1.20;;;;;;;;;;5076204;28;20240;-82
2022/08/02 12:32:37;;;;;;;1.20;1.20;;;;;;;;;;5075394;28;20241;-82
2022/08/02 12:35:09;;;;;;;1.20;1.20;;;;;;;;;;5075889;28;20217;-81
2022/08/02 12:37:38;;;;;;;4.18;1.27;;;;;;;;;;5075513;28;20622;-82
2022/08/02 12:40:23;;;;;;;1.60;1.50;;;;;;;;;;5075486;28;20233;-82
2022/08/02 12:42:52;;;;;;;1.75;1.65;;;;;;;;;;5075806;28;20215;-81
2022/08/02 12:45:20;;;;;;;1.25;1.25;;;;;;;;;;5075225;28;20292;-82
2022/08/02 12:47:50;;;;;;;1.20;1.20;;;;;;;;;;5074486;28;20236;-82
2022/08/02 12:50:20;;;;;;;1.38;1.38;;;;;;;;;;5075211;28;20683;-81
2022/08/02 12:52:48;;;;;;;1.35;1.25;;;;;;;;;;5075177;28;20221;-81
2022/08/02 12:55:20;;;;;;;1.10;1.10;;;;;;;;;;5074758;28;20663;-81
2022/08/02 12:57:57;;;;;;;1.10;1.10;;;;;;;;;;5075892;28;20634;-82
2022/08/02 13:00:28;;;;;;;2.28;1.20;;;;;;;;;;5074962;28;20220;-80
2022/08/02 13:02:56;;;;;;;1.20;1.20;;;;;;;;;;5058289;28;20209;-82
2022/08/02 13:05:24;;;;;;;1.27;1.20;;;;;;;;;;5054452;28;20292;-81
2022/08/02 13:07:52;;;;;;;1.08;1.08;;;;;;;;;;5054982;28;20743;-81
2022/08/02 13:10:22;;;;;;;1.02;1.02;;;;;;;;;;5075436;28;20296;-82
2022/08/02 13:12:50;;;;;;;1.60;1.50;;;;;;;;;;5075423;28;20199;-81
2022/08/02 13:15:18;;;;;;;1.23;1.15;;;;;;;;;;5074991;28;20278;-81
2022/08/02 13:17:46;;;;;;;1.15;1.15;;;;;;;;;;5074669;28;20283;-81
2022/08/02 13:20:14;;;;;;;1.50;1.40;;;;;;;;;;5074711;28;20236;-81
2022/08/02 13:22:43;;;;;;;1.52;1.42;;;;;;;;;;5074327;28;20209;-82
2022/08/02 13:25:10;;;;;;;2.45;1.40;;;;;;;;;;5074931;28;20250;-81
2022/08/02 13:27:39;;;;;;;1.50;1.40;;;;;;;;;;5074895;28;20232;-81
2022/08/02 13:30:09;;;;;;;1.10;1.10;;;;;;;;;;5074455;28;20644;-81
2022/08/02 13:32:36;;;;;;;0.90;0.90;;;;;;;;;;5074819;28;20209;-80
2022/08/02 13:35:04;;;;;;;1.48;1.40;;;;;;;;;;5074764;28;20312;-81
2022/08/02 13:37:31;;;;;;;0.93;0.93;;;;;;;;;;5075233;28;20238;-80
2022/08/02 13:39:59;;;;;;;1.83;1.73;;;;;;;;;;5075288;28;20247;-81
2022/08/02 13:42:27;;;;;;;1.40;1.30;;;;;;;;;;5075700;28;20201;-83
2022/08/02 13:44:56;;;;;;;1.15;1.15;;;;;;;;;;5074555;28;20227;-82
2022/08/02 13:47:23;;;;;;;1.33;1.23;;;;;;;;;;5074666;28;20205;-82
2022/08/02 13:49:51;;;;;;;1.02;1.02;;;;;;;;;;5073112;28;20270;-82
2022/08/02 13:52:18;;;;;;;1.30;1.20;;;;;;;;;;5075175;28;20200;-82
2022/08/02 13:54:46;;;;;;;1.38;1.30;;;;;;;;;;5074113;28;20229;-81
2022/08/02 13:57:13;;;;;;;0.95;0.95;;;;;;;;;;5075760;28;20626;-81
2022/08/02 13:59:41;;;;;;;1.40;1.30;;;;;;;;;;5075813;28;20263;-83
2022/08/02 14:02:10;;;;;;;1.13;1.13;;;;;;;;;;5065113;28;20229;-81
2022/08/02 14:04:37;;;;;;;1.27;1.27;;;;;;;;;;5054545;28;20244;-81
2022/08/02 14:07:05;;;;;;;1.20;1.20;;;;;;;;;;5054343;28;20304;-81
2022/08/02 14:09:34;;;;;;;1.50;1.40;;;;;;;;;;5068375;28;20731;-80
2022/08/02 14:12:02;;;;;;;1.48;1.38;;;;;;;;;;5074186;28;20207;-81
2022/08/02 14:14:30;;;;;;;1.42;1.38;;;;;;;;;;5073667;28;20255;-81
2022/08/02 14:16:57;;;;;;;1.80;1.70;;;;;;;;;;5073117;28;20628;-81
2022/08/02 14:19:26;;;;;;;1.35;1.33;;;;;;;;;;5074711;28;20250;-81
2022/08/02 14:21:54;;;;;;;1.25;1.25;;;;;;;;;;5075135;28;20205;-82
2022/08/02 14:24:22;;;;;;;1.50;1.40;;;;;;;;;;5073537;28;20223;-82
2022/08/02 14:26:51;;;;;;;1.85;1.75;;;;;;;;;;5075138;28;20197;-81
2022/08/02 14:29:19;;;;;;;1.33;1.33;;;;;;;;;;5073333;28;20304;-81
2022/08/02 14:31:46;;;;;;;1.65;1.55;;;;;;;;;;5073902;28;20232;-81
2022/08/02 14:34:14;;;;;;;1.38;1.35;;;;;;;;;;5075801;28;20221;-81
2022/08/02 14:36:43;;;;;;;1.13;1.13;;;;;;;;;;5075176;28;20248;-81
2022/08/02 14:39:11;;;;;;;0.93;0.93;;;;;;;;;;5075401;28;20275;-81
2022/08/02 14:41:39;;;;;;;1.10;1.10;;;;;;;;;;5073755;28;20209;-81
2022/08/02 14:44:07;;;;;;;0.88;0.88;;;;;;;;;;5072651;28;20333;-80
2022/08/02 14:46:37;;;;;;;1.10;1.10;;;;;;;;;;5073472;28;20428;-81
2022/08/02 14:49:06;;;;;;;1.00;1.00;;;;;;;;;;5072557;28;20328;-81
2022/08/02 14:51:34;;;;;;;1.40;1.40;;;;;;;;;;5072919;28;20201;-80
2022/08/02 14:54:05;;;;;;;1.20;1.20;;;;;;;;;;5072251;28;20189;-80
2022/08/02 14:56:33;;;;;;;1.10;1.10;;;;;;;;;;5071994;28;20316;-80
2022/08/02 14:59:00;;;;;;;1.10;1.10;;;;;;;;;;5073215;28;20263;-80
2022/08/02 15:01:28;;;;;;;1.00;1.00;;;;;;;;;;5072649;28;20292;-80
2022/08/02 15:03:55;;;;;;;1.13;1.13;;;;;;;;;;5072001;28;20216;-80
2022/08/02 15:06:23;;;;;;;1.40;1.40;;;;;;;;;;5071650;28;20280;-79